Time;durP1;ratioP1;P1;durP2;ratioP2;P2;SDS_P1;SDS_P2;PMS_P1;PMS_P2;Temp;Humidity;BMP_temperature;BMP_pressure;BME280_temperature;BME280_humidity;BME280_pressure;Samples;Min_cycle;Max_cycle;Signal;HPM_P1;HPM_P2
2021/07/04 00:00:45;;;;;;;3.33;2.70;;;;;;;;;;4439931;28;20358;-68
2021/07/04 00:02:57;;;;;;;3.72;2.80;;;;;;;;;;4516647;28;20079;-68
2021/07/04 00:05:10;;;;;;;3.90;3.17;;;;;;;;;;4486673;28;20145;-68
2021/07/04 00:07:21;;;;;;;4.07;3.30;;;;;;;;;;4437641;28;20190;-68
2021/07/04 00:09:31;;;;;;;5.22;3.30;;;;;;;;;;4438343;28;20070;-68
2021/07/04 00:11:42;;;;;;;4.67;3.60;;;;;;;;;;4502624;28;20037;-68
2021/07/04 00:13:52;;;;;;;3.33;2.80;;;;;;;;;;4440895;28;20047;-68
2021/07/04 00:16:03;;;;;;;4.23;3.10;;;;;;;;;;4501470;28;20030;-68
2021/07/04 00:18:20;;;;;;;4.13;3.08;;;;;;;;;;4489519;28;20035;-68
2021/07/04 00:20:30;;;;;;;3.65;3.05;;;;;;;;;;4443364;28;20039;-68
2021/07/04 00:22:42;;;;;;;3.53;3.00;;;;;;;;;;4439590;28;20612;-68
2021/07/04 00:24:52;;;;;;;4.10;2.90;;;;;;;;;;4444641;28;20795;-68
2021/07/04 00:27:03;;;;;;;3.77;3.17;;;;;;;;;;4506691;28;20029;-68
2021/07/04 00:29:13;;;;;;;3.90;3.10;;;;;;;;;;4501920;28;20038;-68
2021/07/04 00:31:25;;;;;;;4.53;3.07;;;;;;;;;;4442193;28;20110;-68
2021/07/04 00:33:36;;;;;;;4.35;3.42;;;;;;;;;;4440240;28;20031;-68
2021/07/04 00:35:47;;;;;;;4.63;3.40;;;;;;;;;;4442917;28;20040;-68
2021/07/04 00:37:57;;;;;;;4.32;3.45;;;;;;;;;;4501906;28;20295;-68
2021/07/04 00:40:09;;;;;;;4.97;3.33;;;;;;;;;;4500733;28;20028;-68
2021/07/04 00:42:19;;;;;;;4.80;3.75;;;;;;;;;;4517597;28;20049;-68
2021/07/04 00:44:30;;;;;;;3.93;3.23;;;;;;;;;;4505662;28;20049;-68
2021/07/04 00:46:40;;;;;;;5.00;3.47;;;;;;;;;;4439302;28;20086;-68
2021/07/04 00:48:51;;;;;;;5.73;3.60;;;;;;;;;;4441470;28;20095;-68
2021/07/04 00:51:01;;;;;;;4.80;3.53;;;;;;;;;;4500605;28;20037;-68
2021/07/04 00:53:12;;;;;;;3.80;3.20;;;;;;;;;;4518654;28;20594;-68
2021/07/04 00:55:24;;;;;;;4.53;3.35;;;;;;;;;;4486514;28;20031;-68
2021/07/04 00:57:40;;;;;;;4.10;3.15;;;;;;;;;;4494643;28;20038;-68
2021/07/04 00:59:51;;;;;;;4.82;3.45;;;;;;;;;;4443814;28;20032;-68
2021/07/04 01:02:01;;;;;;;4.53;3.40;;;;;;;;;;4438130;28;20040;-68
2021/07/04 01:04:15;;;;;;;4.43;3.40;;;;;;;;;;4439432;28;20847;-68
2021/07/04 01:06:25;;;;;;;5.67;3.83;;;;;;;;;;4501545;28;20178;-68
2021/07/04 01:08:36;;;;;;;4.83;3.90;;;;;;;;;;4443005;28;20439;-68
2021/07/04 01:10:47;;;;;;;5.28;3.60;;;;;;;;;;4503315;28;20034;-68
2021/07/04 01:13:01;;;;;;;4.78;3.67;;;;;;;;;;4520289;28;20029;-68
2021/07/04 01:15:17;;;;;;;4.75;3.50;;;;;;;;;;4500434;28;20560;-68
2021/07/04 01:17:30;;;;;;;4.47;3.70;;;;;;;;;;4487557;28;20137;-68
2021/07/04 01:19:41;;;;;;;4.10;3.38;;;;;;;;;;4501365;28;20041;-68
2021/07/04 01:21:55;;;;;;;4.70;3.50;;;;;;;;;;4501807;28;20038;-68
2021/07/04 01:24:06;;;;;;;4.15;3.10;;;;;;;;;;4501800;28;20037;-68
2021/07/04 01:26:17;;;;;;;4.90;3.53;;;;;;;;;;4503513;28;20490;-67
2021/07/04 01:28:27;;;;;;;4.50;3.60;;;;;;;;;;4441447;28;20039;-68
2021/07/04 01:30:43;;;;;;;3.70;3.03;;;;;;;;;;4505889;28;20120;-68
2021/07/04 01:32:54;;;;;;;5.00;3.60;;;;;;;;;;4505238;28;20085;-68
2021/07/04 01:35:05;;;;;;;4.35;3.55;;;;;;;;;;4439823;28;20036;-68
2021/07/04 01:37:16;;;;;;;4.68;3.60;;;;;;;;;;4444068;28;20071;-68
2021/07/04 01:39:28;;;;;;;4.85;3.88;;;;;;;;;;4440779;28;20613;-68
2021/07/04 01:41:45;;;;;;;4.22;3.60;;;;;;;;;;4473489;28;20090;-68
2021/07/04 01:44:02;;;;;;;4.47;3.75;;;;;;;;;;4446653;28;20761;-68
2021/07/04 01:46:13;;;;;;;4.80;3.90;;;;;;;;;;4440708;28;20193;-68
2021/07/04 01:48:27;;;;;;;4.78;3.38;;;;;;;;;;4448246;28;20110;-68
2021/07/04 01:50:44;;;;;;;4.95;3.70;;;;;;;;;;4506005;28;20750;-68
2021/07/04 01:52:55;;;;;;;5.65;3.67;;;;;;;;;;4489826;28;20035;-68
2021/07/04 01:55:09;;;;;;;4.57;3.60;;;;;;;;;;4519313;28;20033;-68
2021/07/04 01:57:21;;;;;;;4.13;3.55;;;;;;;;;;4516775;28;20030;-68
2021/07/04 01:59:44;;;;;;;5.20;3.63;;;;;;;;;;4485532;28;20039;-68
2021/07/04 02:02:09;;;;;;;4.65;3.45;;;;;;;;;;4508342;28;20033;-68
2021/07/04 02:04:22;;;;;;;4.82;3.50;;;;;;;;;;4499918;28;20038;-68
2021/07/04 02:06:48;;;;;;;4.55;3.47;;;;;;;;;;4518283;28;20091;-68
2021/07/04 02:08:59;;;;;;;5.03;3.57;;;;;;;;;;4484997;28;20038;-68
2021/07/04 02:11:12;;;;;;;5.20;3.92;;;;;;;;;;4502811;28;20041;-68
2021/07/04 02:13:27;;;;;;;5.40;3.80;;;;;;;;;;4516718;28;20041;-68
2021/07/04 02:15:40;;;;;;;5.25;3.90;;;;;;;;;;4444449;28;20057;-68
2021/07/04 02:18:14;;;;;;;5.40;4.10;;;;;;;;;;4494793;28;20811;-68
2021/07/04 02:20:52;;;;;;;5.88;3.75;;;;;;;;;;4415322;28;20050;-68
2021/07/04 02:23:29;;;;;;;4.28;3.53;;;;;;;;;;4483765;28;20554;-68
2021/07/04 02:25:49;;;;;;;5.07;4.00;;;;;;;;;;4438833;28;20636;-68
2021/07/04 02:28:00;;;;;;;5.50;4.13;;;;;;;;;;4500656;28;20049;-68
2021/07/04 02:30:15;;;;;;;5.70;3.92;;;;;;;;;;4505564;28;21023;-68
2021/07/04 02:32:29;;;;;;;5.78;3.97;;;;;;;;;;4500316;28;20218;-68
2021/07/04 02:34:43;;;;;;;4.95;4.07;;;;;;;;;;4441478;28;20499;-68
2021/07/04 02:36:53;;;;;;;5.70;3.97;;;;;;;;;;4439843;28;20036;-68
2021/07/04 02:39:07;;;;;;;5.38;4.20;;;;;;;;;;4515711;28;20067;-68
2021/07/04 02:41:18;;;;;;;5.45;4.22;;;;;;;;;;4502992;28;20038;-67
2021/07/04 02:43:28;;;;;;;4.97;4.17;;;;;;;;;;4519792;28;20037;-68
2021/07/04 02:45:45;;;;;;;4.90;3.88;;;;;;;;;;4507045;28;20129;-68
2021/07/04 02:48:03;;;;;;;5.30;4.05;;;;;;;;;;4504221;28;20614;-68
2021/07/04 02:50:20;;;;;;;6.10;4.13;;;;;;;;;;4516481;28;20670;-68
2021/07/04 02:52:32;;;;;;;4.75;3.95;;;;;;;;;;4500103;28;20101;-68
2021/07/04 02:54:42;;;;;;;5.22;4.18;;;;;;;;;;4437616;28;20503;-68
2021/07/04 02:57:07;;;;;;;5.22;4.13;;;;;;;;;;4501656;28;20754;-68
2021/07/04 02:59:21;;;;;;;5.57;4.43;;;;;;;;;;4498353;28;20030;-68
2021/07/04 03:01:31;;;;;;;5.37;4.13;;;;;;;;;;4500416;28;20530;-68
2021/07/04 03:03:42;;;;;;;6.07;4.30;;;;;;;;;;4499261;28;20466;-68
2021/07/04 03:05:52;;;;;;;5.37;3.97;;;;;;;;;;4439321;28;20618;-68
2021/07/04 03:08:04;;;;;;;4.72;3.85;;;;;;;;;;4436732;28;20333;-67
2021/07/04 03:10:15;;;;;;;;;;;;;;;;;;4483381;28;20079;-68
2021/07/04 03:12:27;;;;;;;5.43;3.83;;;;;;;;;;4441478;28;19957;-68
2021/07/04 03:14:41;;;;;;;4.75;3.60;;;;;;;;;;4503034;28;21321;-67
2021/07/04 03:16:52;;;;;;;5.13;4.13;;;;;;;;;;4498732;28;20089;-68
2021/07/04 03:19:03;;;;;;;4.85;3.80;;;;;;;;;;4506729;28;20033;-68
2021/07/04 03:21:14;;;;;;;6.33;4.70;;;;;;;;;;4502471;28;20030;-68
2021/07/04 03:23:26;;;;;;;4.55;3.55;;;;;;;;;;4499783;28;20868;-68
2021/07/04 03:25:40;;;;;;;4.43;3.42;;;;;;;;;;4498796;28;20585;-68
2021/07/04 03:27:54;;;;;;;5.30;3.70;;;;;;;;;;4442100;28;20044;-68
2021/07/04 03:30:07;;;;;;;4.80;3.60;;;;;;;;;;4487499;28;20542;-68
2021/07/04 03:32:18;;;;;;;4.65;3.83;;;;;;;;;;4514960;28;20029;-68
2021/07/04 03:34:30;;;;;;;5.28;4.05;;;;;;;;;;4439926;28;20039;-68
2021/07/04 03:36:41;;;;;;;7.00;4.47;;;;;;;;;;4500769;28;20029;-68
2021/07/04 03:38:55;;;;;;;6.07;4.45;;;;;;;;;;4499183;28;20038;-68
2021/07/04 03:41:07;;;;;;;6.05;4.65;;;;;;;;;;4502128;28;20033;-68
2021/07/04 03:43:18;;;;;;;4.45;3.70;;;;;;;;;;4439020;28;20036;-68
2021/07/04 03:45:29;;;;;;;5.27;4.00;;;;;;;;;;4501636;28;20037;-68
2021/07/04 03:47:41;;;;;;;5.20;4.03;;;;;;;;;;4501383;28;20041;-68
2021/07/04 03:49:53;;;;;;;6.28;4.60;;;;;;;;;;4498780;28;20115;-68
2021/07/04 03:52:06;;;;;;;5.70;4.35;;;;;;;;;;4502387;28;20863;-68
2021/07/04 03:54:18;;;;;;;5.82;4.22;;;;;;;;;;4498188;28;20034;-68
2021/07/04 03:56:29;;;;;;;5.20;4.15;;;;;;;;;;4502236;28;20572;-68
2021/07/04 03:58:45;;;;;;;4.93;4.05;;;;;;;;;;4514403;28;20046;-68
2021/07/04 04:00:56;;;;;;;4.97;4.10;;;;;;;;;;4499567;28;20031;-68
2021/07/04 04:03:14;;;;;;;5.47;4.18;;;;;;;;;;4501742;28;20034;-68
2021/07/04 04:05:41;;;;;;;5.88;4.25;;;;;;;;;;4489236;28;20759;-68
2021/07/04 04:07:52;;;;;;;5.65;4.03;;;;;;;;;;4438572;28;20032;-68
2021/07/04 04:10:07;;;;;;;6.00;4.47;;;;;;;;;;4494979;28;20845;-68
2021/07/04 04:12:19;;;;;;;5.70;4.30;;;;;;;;;;4436608;28;20039;-68
2021/07/04 04:14:30;;;;;;;5.22;4.15;;;;;;;;;;4500574;28;20033;-68
2021/07/04 04:16:44;;;;;;;5.38;4.53;;;;;;;;;;4482747;28;20039;-68
2021/07/04 04:18:55;;;;;;;4.70;3.83;;;;;;;;;;4480432;28;20088;-68
2021/07/04 04:21:08;;;;;;;5.97;4.60;;;;;;;;;;4440907;28;20046;-68
2021/07/04 04:23:19;;;;;;;6.47;4.85;;;;;;;;;;4503470;28;20914;-68
2021/07/04 04:25:29;;;;;;;5.93;4.40;;;;;;;;;;4499758;28;20125;-68
2021/07/04 04:27:42;;;;;;;4.88;3.70;;;;;;;;;;4436387;28;20079;-68
2021/07/04 04:29:56;;;;;;;5.60;3.97;;;;;;;;;;4485937;28;20053;-68
2021/07/04 04:32:08;;;;;;;5.30;4.10;;;;;;;;;;4438001;28;20035;-68
2021/07/04 04:34:18;;;;;;;5.65;4.00;;;;;;;;;;4468269;28;20821;-68
2021/07/04 04:36:29;;;;;;;4.80;3.90;;;;;;;;;;4434237;28;20554;-68
2021/07/04 04:38:39;;;;;;;6.20;4.03;;;;;;;;;;4442792;28;20027;-68
2021/07/04 04:40:49;;;;;;;6.23;3.93;;;;;;;;;;4433683;28;20095;-68
2021/07/04 04:43:00;;;;;;;5.23;4.27;;;;;;;;;;4434850;28;20086;-68
2021/07/04 04:45:11;;;;;;;5.20;3.83;;;;;;;;;;4435235;28;20035;-68
2021/07/04 04:47:22;;;;;;;5.37;3.90;;;;;;;;;;4442316;28;20040;-68
2021/07/04 04:49:33;;;;;;;5.73;4.27;;;;;;;;;;4499027;28;20335;-68
2021/07/04 04:51:44;;;;;;;5.88;4.15;;;;;;;;;;4496031;28;20038;-68
2021/07/04 04:53:54;;;;;;;5.07;4.10;;;;;;;;;;4436615;28;20044;-68
2021/07/04 04:56:05;;;;;;;5.00;3.90;;;;;;;;;;4445897;28;20044;-68
2021/07/04 04:58:15;;;;;;;4.40;3.73;;;;;;;;;;4498881;28;20221;-68
2021/07/04 05:00:26;;;;;;;5.07;3.67;;;;;;;;;;4439484;28;20028;-68
2021/07/04 05:02:36;;;;;;;4.57;3.77;;;;;;;;;;4440755;28;20043;-68
2021/07/04 05:04:47;;;;;;;4.47;3.70;;;;;;;;;;4504235;28;20030;-68
2021/07/04 05:06:57;;;;;;;4.97;3.70;;;;;;;;;;4443569;28;20674;-67
2021/07/04 05:09:08;;;;;;;5.83;4.40;;;;;;;;;;4439102;28;20411;-68
2021/07/04 05:11:18;;;;;;;4.63;3.70;;;;;;;;;;4440139;28;20047;-68
2021/07/04 05:13:29;;;;;;;5.73;3.57;;;;;;;;;;4505686;28;20041;-68
2021/07/04 05:15:39;;;;;;;5.80;4.00;;;;;;;;;;4503672;28;20129;-68
2021/07/04 05:17:50;;;;;;;4.40;3.55;;;;;;;;;;4443621;28;20075;-68
2021/07/04 05:20:03;;;;;;;6.35;4.40;;;;;;;;;;4437731;28;20555;-68
2021/07/04 05:22:13;;;;;;;5.97;4.20;;;;;;;;;;4445523;28;20040;-68
2021/07/04 05:24:24;;;;;;;5.80;4.03;;;;;;;;;;4440415;28;20036;-68
2021/07/04 05:26:35;;;;;;;5.70;3.90;;;;;;;;;;4438875;28;20589;-68
2021/07/04 05:28:45;;;;;;;4.90;4.03;;;;;;;;;;4487988;28;20443;-68
2021/07/04 05:30:56;;;;;;;5.73;3.80;;;;;;;;;;4485968;28;20102;-68
2021/07/04 05:33:06;;;;;;;4.73;3.83;;;;;;;;;;4442444;28;20067;-68
2021/07/04 05:35:17;;;;;;;4.63;3.80;;;;;;;;;;4439417;28;20063;-68
2021/07/04 05:37:27;;;;;;;5.83;3.73;;;;;;;;;;4439477;28;20036;-68
2021/07/04 05:39:38;;;;;;;4.77;3.83;;;;;;;;;;4439225;28;20127;-68
2021/07/04 05:41:48;;;;;;;4.28;3.40;;;;;;;;;;4494868;28;20033;-68
2021/07/04 05:43:59;;;;;;;5.53;4.10;;;;;;;;;;4508152;28;20064;-68
2021/07/04 05:46:10;;;;;;;5.53;4.07;;;;;;;;;;4439842;28;20515;-68
2021/07/04 05:48:21;;;;;;;5.80;4.35;;;;;;;;;;4503606;28;20498;-68
2021/07/04 05:50:31;;;;;;;5.13;4.00;;;;;;;;;;4506335;28;20446;-68
2021/07/04 05:52:42;;;;;;;5.37;4.10;;;;;;;;;;4500310;28;20041;-68
2021/07/04 05:54:52;;;;;;;5.73;4.30;;;;;;;;;;4441709;28;20361;-68
2021/07/04 05:57:05;;;;;;;5.40;4.00;;;;;;;;;;4499579;28;20434;-68
2021/07/04 05:59:16;;;;;;;6.38;4.13;;;;;;;;;;4498609;28;20041;-68
2021/07/04 06:01:26;;;;;;;5.50;4.23;;;;;;;;;;4443687;28;20044;-67
2021/07/04 06:03:37;;;;;;;5.87;4.30;;;;;;;;;;4500731;28;20041;-67
2021/07/04 06:05:47;;;;;;;4.77;3.87;;;;;;;;;;4440568;28;20046;-67
2021/07/04 06:07:58;;;;;;;5.97;4.37;;;;;;;;;;4499221;28;20030;-67
2021/07/04 06:10:09;;;;;;;5.27;3.47;;;;;;;;;;4437796;28;20048;-67
2021/07/04 06:12:19;;;;;;;5.97;4.55;;;;;;;;;;4445145;28;20123;-67
2021/07/04 06:14:30;;;;;;;6.90;4.50;;;;;;;;;;4437081;28;20050;-67
2021/07/04 06:16:40;;;;;;;6.47;4.33;;;;;;;;;;4446994;28;20095;-67
2021/07/04 06:18:51;;;;;;;6.10;3.47;;;;;;;;;;4440709;28;20525;-68
2021/07/04 06:21:01;;;;;;;5.17;3.77;;;;;;;;;;4441045;28;20039;-67
2021/07/04 06:23:12;;;;;;;5.03;4.13;;;;;;;;;;4503071;28;20116;-67
2021/07/04 06:25:22;;;;;;;5.77;3.90;;;;;;;;;;4503982;28;20112;-67
2021/07/04 06:27:33;;;;;;;5.95;4.30;;;;;;;;;;4502354;28;20035;-67
2021/07/04 06:29:43;;;;;;;4.83;3.50;;;;;;;;;;4438715;28;20036;-67
2021/07/04 06:31:54;;;;;;;4.73;3.70;;;;;;;;;;4440503;28;20090;-67
2021/07/04 06:34:04;;;;;;;4.70;3.73;;;;;;;;;;4438281;28;20028;-67
2021/07/04 06:36:15;;;;;;;5.67;3.77;;;;;;;;;;4436810;28;20094;-67
2021/07/04 06:38:26;;;;;;;4.90;3.60;;;;;;;;;;4442025;28;20046;-67
2021/07/04 06:40:37;;;;;;;5.03;3.85;;;;;;;;;;4500493;28;20069;-67
2021/07/04 06:42:47;;;;;;;4.83;3.70;;;;;;;;;;4502694;28;20557;-67
2021/07/04 06:44:58;;;;;;;5.13;3.63;;;;;;;;;;4441027;28;20047;-67
2021/07/04 06:47:08;;;;;;;5.97;3.57;;;;;;;;;;4444893;28;20032;-67
2021/07/04 06:49:19;;;;;;;6.40;3.50;;;;;;;;;;4446721;28;20079;-67
2021/07/04 06:51:30;;;;;;;5.03;3.47;;;;;;;;;;4498669;28;20026;-67
2021/07/04 06:53:40;;;;;;;6.40;3.77;;;;;;;;;;4440035;28;20275;-67
2021/07/04 06:55:50;;;;;;;5.13;3.63;;;;;;;;;;4435428;28;20050;-67
2021/07/04 06:58:01;;;;;;;4.70;3.17;;;;;;;;;;4440988;28;20040;-66
2021/07/04 07:00:14;;;;;;;3.97;3.30;;;;;;;;;;4500767;28;20038;-68
2021/07/04 07:02:25;;;;;;;3.85;3.08;;;;;;;;;;4516880;28;20044;-66
2021/07/04 07:04:36;;;;;;;3.70;3.10;;;;;;;;;;4472613;28;20078;-66
2021/07/04 07:06:46;;;;;;;5.30;3.30;;;;;;;;;;4498525;28;20042;-66
2021/07/04 07:08:57;;;;;;;3.57;2.93;;;;;;;;;;4504174;28;20040;-66
2021/07/04 07:11:07;;;;;;;3.37;2.73;;;;;;;;;;4444106;28;20043;-66
2021/07/04 07:13:17;;;;;;;3.47;2.93;;;;;;;;;;4501440;28;20029;-66
2021/07/04 07:15:30;;;;;;;3.67;2.65;;;;;;;;;;4499690;28;20592;-66
2021/07/04 07:17:42;;;;;;;3.17;2.63;;;;;;;;;;4515898;28;20119;-66
2021/07/04 07:19:56;;;;;;;4.18;3.25;;;;;;;;;;4515769;28;20029;-66
2021/07/04 07:22:07;;;;;;;4.03;2.47;;;;;;;;;;4439801;28;20032;-66
2021/07/04 07:24:18;;;;;;;3.65;2.70;;;;;;;;;;4505407;28;20037;-66
2021/07/04 07:26:31;;;;;;;3.67;2.70;;;;;;;;;;4438899;28;20031;-66
2021/07/04 07:28:41;;;;;;;3.50;2.60;;;;;;;;;;4501659;28;20038;-65
2021/07/04 07:30:56;;;;;;;3.92;2.90;;;;;;;;;;4437834;28;20040;-66
2021/07/04 07:33:10;;;;;;;3.45;2.88;;;;;;;;;;4486017;28;20030;-66
2021/07/04 07:35:21;;;;;;;4.47;3.10;;;;;;;;;;4439797;28;20043;-66
2021/07/04 07:37:34;;;;;;;3.40;2.70;;;;;;;;;;4484085;28;20112;-66
2021/07/04 07:39:44;;;;;;;3.53;2.92;;;;;;;;;;4498799;28;20087;-66
2021/07/04 07:41:55;;;;;;;4.60;3.17;;;;;;;;;;4441224;28;20048;-66
2021/07/04 07:44:05;;;;;;;3.93;3.00;;;;;;;;;;4500684;28;20053;-66
2021/07/04 07:46:16;;;;;;;4.17;2.80;;;;;;;;;;4445377;28;20032;-66
2021/07/04 07:48:27;;;;;;;4.65;3.00;;;;;;;;;;4503532;28;20048;-66
2021/07/04 07:50:44;;;;;;;4.18;2.92;;;;;;;;;;4502190;28;20076;-66
2021/07/04 07:52:55;;;;;;;4.40;2.77;;;;;;;;;;4441911;28;20090;-66
2021/07/04 07:55:06;;;;;;;3.10;2.77;;;;;;;;;;4502782;28;20040;-66
2021/07/04 07:57:21;;;;;;;3.28;2.65;;;;;;;;;;4487718;28;20113;-66
2021/07/04 07:59:32;;;;;;;;;;;;;;;;;;4476465;28;20085;-66
2021/07/04 08:01:43;;;;;;;3.58;2.78;;;;;;;;;;4515550;28;20574;-66
2021/07/04 08:03:55;;;;;;;4.43;3.08;;;;;;;;;;4485370;28;20346;-66
2021/07/04 08:06:05;;;;;;;4.27;3.03;;;;;;;;;;4504652;28;20037;-66
2021/07/04 08:08:16;;;;;;;5.10;2.70;;;;;;;;;;4500673;28;20040;-66
2021/07/04 08:10:26;;;;;;;3.80;3.00;;;;;;;;;;4440729;28;20130;-66
2021/07/04 08:12:37;;;;;;;3.37;2.77;;;;;;;;;;4499717;28;20030;-65
2021/07/04 08:14:47;;;;;;;4.23;2.77;;;;;;;;;;4499944;28;20038;-67
2021/07/04 08:16:58;;;;;;;4.63;3.10;;;;;;;;;;4499030;28;20045;-66
2021/07/04 08:19:08;;;;;;;3.63;2.80;;;;;;;;;;4500333;28;20125;-65
2021/07/04 08:21:18;;;;;;;3.30;2.70;;;;;;;;;;4498483;28;20065;-66
2021/07/04 08:23:29;;;;;;;3.53;3.03;;;;;;;;;;4436540;28;20488;-67
2021/07/04 08:25:39;;;;;;;3.63;2.83;;;;;;;;;;4439821;28;20370;-66
2021/07/04 08:27:50;;;;;;;3.53;2.77;;;;;;;;;;4437882;28;20392;-68
2021/07/04 08:30:02;;;;;;;3.30;2.67;;;;;;;;;;4442852;28;20048;-69
2021/07/04 08:32:12;;;;;;;3.25;2.50;;;;;;;;;;4435957;28;20043;-69
2021/07/04 08:34:22;;;;;;;3.40;2.60;;;;;;;;;;4443409;28;20588;-68
2021/07/04 08:36:33;;;;;;;3.93;2.83;;;;;;;;;;4438661;28;20480;-68
2021/07/04 08:38:44;;;;;;;3.63;2.83;;;;;;;;;;4518792;28;20127;-67
2021/07/04 08:40:54;;;;;;;2.90;2.60;;;;;;;;;;4502563;28;20044;-67
2021/07/04 08:43:05;;;;;;;3.27;2.70;;;;;;;;;;4440666;28;20043;-67
2021/07/04 08:45:15;;;;;;;4.20;3.00;;;;;;;;;;4489280;28;20058;-69
2021/07/04 08:47:26;;;;;;;3.13;2.60;;;;;;;;;;4441391;28;20063;-69
2021/07/04 08:49:36;;;;;;;3.57;2.60;;;;;;;;;;4439683;28;20043;-68
2021/07/04 08:51:47;;;;;;;3.03;2.33;;;;;;;;;;4436799;28;20051;-69
2021/07/04 08:53:58;;;;;;;2.85;2.33;;;;;;;;;;4491144;28;20030;-69
2021/07/04 08:56:08;;;;;;;2.80;2.30;;;;;;;;;;4482807;28;20035;-69
2021/07/04 08:58:21;;;;;;;2.80;2.20;;;;;;;;;;4439137;28;20054;-69
2021/07/04 09:00:32;;;;;;;2.50;2.28;;;;;;;;;;4507673;28;20056;-69
2021/07/04 09:02:43;;;;;;;3.23;2.60;;;;;;;;;;4438857;28;20073;-69
2021/07/04 09:05:05;;;;;;;3.03;2.45;;;;;;;;;;4502266;28;20180;-70
2021/07/04 09:07:24;;;;;;;2.90;2.47;;;;;;;;;;4501866;28;20049;-69
2021/07/04 09:09:35;;;;;;;3.47;2.30;;;;;;;;;;4440343;28;20217;-69
2021/07/04 09:11:58;;;;;;;3.33;2.33;;;;;;;;;;4515579;28;20083;-68
2021/07/04 09:14:09;;;;;;;2.70;2.33;;;;;;;;;;4485249;28;20050;-69
2021/07/04 09:16:20;;;;;;;2.33;2.13;;;;;;;;;;4442551;28;20050;-69
2021/07/04 09:18:31;;;;;;;;;;;;;;;;;;4439820;28;20811;-69
2021/07/04 09:20:42;;;;;;;2.47;2.10;;;;;;;;;;4435654;28;19934;-69
2021/07/04 09:22:53;;;;;;;2.37;2.17;;;;;;;;;;4440314;28;20051;-69
2021/07/04 09:25:25;;;;;;;2.53;2.10;;;;;;;;;;4499869;28;20053;-69
2021/07/04 09:27:36;;;;;;;2.35;2.03;;;;;;;;;;4482888;28;20162;-69
2021/07/04 09:29:52;;;;;;;3.72;2.35;;;;;;;;;;4448985;28;20044;-69
2021/07/04 09:32:17;;;;;;;2.28;1.98;;;;;;;;;;4438701;28;20035;-69
2021/07/04 09:34:28;;;;;;;3.25;2.40;;;;;;;;;;4441339;28;20039;-69
2021/07/04 09:36:40;;;;;;;3.33;2.33;;;;;;;;;;4439000;28;20028;-69
2021/07/04 09:38:50;;;;;;;3.00;2.22;;;;;;;;;;4507050;28;20604;-70
2021/07/04 09:41:03;;;;;;;2.63;2.30;;;;;;;;;;4439298;28;20036;-70
2021/07/04 09:43:15;;;;;;;3.03;2.17;;;;;;;;;;4446661;28;20039;-70
2021/07/04 09:45:40;;;;;;;2.45;1.95;;;;;;;;;;4506163;28;20069;-70
2021/07/04 09:47:54;;;;;;;2.58;2.03;;;;;;;;;;4440932;28;20028;-70
2021/07/04 09:50:05;;;;;;;3.35;2.10;;;;;;;;;;4436714;28;20303;-71
2021/07/04 09:52:21;;;;;;;2.15;1.90;;;;;;;;;;4445506;28;20481;-70
2021/07/04 09:54:32;;;;;;;2.40;2.00;;;;;;;;;;4503940;28;20161;-70
2021/07/04 09:56:56;;;;;;;3.63;2.43;;;;;;;;;;4504843;28;20043;-70
2021/07/04 09:59:06;;;;;;;2.75;2.28;;;;;;;;;;4502009;28;20604;-71
2021/07/04 10:01:35;;;;;;;3.03;2.20;;;;;;;;;;4440627;28;20038;-71
2021/07/04 10:03:46;;;;;;;2.65;2.03;;;;;;;;;;4499897;28;20038;-70
2021/07/04 10:06:02;;;;;;;2.30;2.10;;;;;;;;;;4444201;28;20032;-69
2021/07/04 10:08:32;;;;;;;2.30;2.08;;;;;;;;;;4443037;28;20043;-70
2021/07/04 10:10:43;;;;;;;3.65;2.28;;;;;;;;;;4441235;28;20046;-70
2021/07/04 10:12:54;;;;;;;2.28;2.05;;;;;;;;;;4441693;28;20087;-69
2021/07/04 10:15:05;;;;;;;2.53;2.17;;;;;;;;;;4502815;28;20206;-70
2021/07/04 10:17:16;;;;;;;2.63;2.10;;;;;;;;;;4441566;28;20113;-70
2021/07/04 10:19:29;;;;;;;2.60;2.03;;;;;;;;;;4501273;28;20064;-70
2021/07/04 10:21:40;;;;;;;3.20;2.05;;;;;;;;;;4501153;28;20033;-69
2021/07/04 10:23:51;;;;;;;2.35;1.88;;;;;;;;;;4492143;28;20490;-70
2021/07/04 10:26:02;;;;;;;2.40;2.00;;;;;;;;;;4500896;28;20092;-70
2021/07/04 10:28:15;;;;;;;3.08;2.60;;;;;;;;;;4441419;28;20257;-70
2021/07/04 10:30:26;;;;;;;3.42;2.67;;;;;;;;;;4504785;28;20045;-70
2021/07/04 10:32:37;;;;;;;2.65;2.30;;;;;;;;;;4438940;28;20038;-69
2021/07/04 10:34:52;;;;;;;3.13;2.20;;;;;;;;;;4437160;28;20042;-70
2021/07/04 10:37:05;;;;;;;4.05;2.78;;;;;;;;;;4483898;28;20770;-70
2021/07/04 10:39:15;;;;;;;3.45;2.63;;;;;;;;;;4438855;28;20753;-70
2021/07/04 10:41:33;;;;;;;2.97;2.50;;;;;;;;;;4446610;28;20034;-69
2021/07/04 10:43:57;;;;;;;3.45;2.83;;;;;;;;;;4440191;28;20613;-69
2021/07/04 10:46:07;;;;;;;3.67;3.10;;;;;;;;;;4442353;28;20043;-70
2021/07/04 10:48:25;;;;;;;3.97;2.60;;;;;;;;;;4488337;28;20673;-69
2021/07/04 10:50:35;;;;;;;3.03;2.72;;;;;;;;;;4485717;28;20030;-70
2021/07/04 10:52:51;;;;;;;3.63;2.77;;;;;;;;;;4441171;28;20488;-70
2021/07/04 10:55:04;;;;;;;4.47;2.85;;;;;;;;;;4441885;28;20548;-70
2021/07/04 10:57:34;;;;;;;3.03;2.58;;;;;;;;;;4434980;28;20040;-69
2021/07/04 11:00:00;;;;;;;3.75;2.80;;;;;;;;;;4437712;28;20162;-70
2021/07/04 11:02:50;;;;;;;3.72;2.58;;;;;;;;;;4440673;28;20034;-69
2021/07/04 11:05:00;;;;;;;3.00;2.70;;;;;;;;;;4442770;28;20348;-69
2021/07/04 11:07:11;;;;;;;4.17;2.77;;;;;;;;;;4499282;28;20054;-70
2021/07/04 11:09:21;;;;;;;4.47;3.03;;;;;;;;;;4501163;28;20041;-69
2021/07/04 11:11:31;;;;;;;3.17;2.70;;;;;;;;;;4501465;28;20104;-70
2021/07/04 11:13:44;;;;;;;3.87;3.00;;;;;;;;;;4438815;28;20415;-70
2021/07/04 11:16:10;;;;;;;3.97;3.20;;;;;;;;;;4495347;28;20126;-70
2021/07/04 11:18:21;;;;;;;3.80;2.90;;;;;;;;;;4436185;28;20047;-69
2021/07/04 11:20:41;;;;;;;3.80;3.05;;;;;;;;;;4499388;28;20045;-70
2021/07/04 11:23:00;;;;;;;3.63;2.70;;;;;;;;;;4443734;28;20050;-70
2021/07/04 11:25:16;;;;;;;3.35;2.72;;;;;;;;;;4503254;28;20021;-70
2021/07/04 11:27:27;;;;;;;3.75;3.00;;;;;;;;;;4437540;28;20657;-69
2021/07/04 11:29:38;;;;;;;3.80;3.00;;;;;;;;;;4501501;28;20040;-70
2021/07/04 11:31:48;;;;;;;4.07;2.90;;;;;;;;;;4439457;28;20499;-69
2021/07/04 11:34:02;;;;;;;3.63;2.90;;;;;;;;;;4500002;28;20041;-69
2021/07/04 11:36:16;;;;;;;4.78;3.08;;;;;;;;;;4500977;28;20624;-69
2021/07/04 11:38:28;;;;;;;4.45;3.55;;;;;;;;;;4439207;28;20039;-69
2021/07/04 11:40:40;;;;;;;3.75;3.08;;;;;;;;;;4438189;28;20856;-69
2021/07/04 11:42:50;;;;;;;3.28;2.67;;;;;;;;;;4500486;28;20152;-69
2021/07/04 11:45:16;;;;;;;3.40;2.97;;;;;;;;;;4500347;28;20036;-69
2021/07/04 11:47:26;;;;;;;4.32;2.83;;;;;;;;;;4442989;28;20036;-69
2021/07/04 11:49:37;;;;;;;3.70;2.80;;;;;;;;;;4500224;28;20077;-69
2021/07/04 11:51:52;;;;;;;4.83;3.47;;;;;;;;;;4441401;28;20035;-69
2021/07/04 11:54:02;;;;;;;4.10;3.10;;;;;;;;;;4436275;28;20105;-69
2021/07/04 11:56:13;;;;;;;4.27;2.93;;;;;;;;;;4438763;28;20546;-69
2021/07/04 11:58:29;;;;;;;2.90;2.55;;;;;;;;;;4493774;28;20037;-69
2021/07/04 12:00:39;;;;;;;3.60;2.70;;;;;;;;;;4499281;28;20513;-69
2021/07/04 12:02:53;;;;;;;3.20;2.70;;;;;;;;;;4441088;28;20059;-69
2021/07/04 12:05:13;;;;;;;3.58;2.72;;;;;;;;;;4439100;28;20147;-69
2021/07/04 12:07:25;;;;;;;3.42;2.58;;;;;;;;;;4437413;28;21156;-69
2021/07/04 12:09:46;;;;;;;2.80;2.28;;;;;;;;;;4436320;28;20032;-69
2021/07/04 12:11:56;;;;;;;3.28;2.97;;;;;;;;;;4444784;28;20051;-70
2021/07/04 12:14:29;;;;;;;5.07;2.80;;;;;;;;;;4503744;28;20037;-70
2021/07/04 12:16:40;;;;;;;3.35;2.83;;;;;;;;;;4437076;28;20040;-70
2021/07/04 12:18:53;;;;;;;3.97;2.70;;;;;;;;;;4500417;28;20034;-70
2021/07/04 12:21:05;;;;;;;2.90;2.60;;;;;;;;;;4437893;28;21478;-69
2021/07/04 12:23:16;;;;;;;3.60;2.40;;;;;;;;;;4501380;28;20127;-70
2021/07/04 12:25:27;;;;;;;2.87;2.47;;;;;;;;;;4498422;28;20158;-70
2021/07/04 12:27:43;;;;;;;2.80;2.50;;;;;;;;;;4440701;28;20123;-70
2021/07/04 12:30:11;;;;;;;3.10;2.38;;;;;;;;;;4439767;28;20661;-70
2021/07/04 12:32:21;;;;;;;3.45;2.83;;;;;;;;;;4498826;28;20033;-70
2021/07/04 12:34:32;;;;;;;3.30;2.80;;;;;;;;;;4497692;28;20030;-69
2021/07/04 12:36:43;;;;;;;2.88;2.60;;;;;;;;;;4502921;28;20042;-68
2021/07/04 12:38:53;;;;;;;3.27;2.63;;;;;;;;;;4499755;28;20066;-69
2021/07/04 12:41:08;;;;;;;2.73;2.33;;;;;;;;;;4440064;28;20071;-70
2021/07/04 12:43:22;;;;;;;3.65;2.85;;;;;;;;;;4438367;28;20032;-70
2021/07/04 12:45:33;;;;;;;3.85;2.80;;;;;;;;;;4515847;28;20028;-69
2021/07/04 12:47:44;;;;;;;3.00;2.60;;;;;;;;;;4488914;28;20045;-70
2021/07/04 12:50:21;;;;;;;3.25;2.70;;;;;;;;;;4438003;28;20103;-71
2021/07/04 12:52:31;;;;;;;3.00;2.40;;;;;;;;;;4439489;28;20147;-70
2021/07/04 12:54:42;;;;;;;3.00;2.50;;;;;;;;;;4437289;28;20048;-69
2021/07/04 12:56:53;;;;;;;2.92;2.40;;;;;;;;;;4498788;28;21030;-69
2021/07/04 12:59:07;;;;;;;3.03;2.40;;;;;;;;;;4443135;28;20032;-70
2021/07/04 13:01:22;;;;;;;3.40;2.53;;;;;;;;;;4499179;28;20580;-70
2021/07/04 13:03:44;;;;;;;3.20;2.60;;;;;;;;;;4439637;28;20035;-70
2021/07/04 13:05:54;;;;;;;3.60;2.75;;;;;;;;;;4488391;28;20846;-70
2021/07/04 13:08:12;;;;;;;3.57;2.53;;;;;;;;;;4442751;28;20093;-70
2021/07/04 13:10:35;;;;;;;4.25;2.95;;;;;;;;;;4438454;28;20640;-70
2021/07/04 13:12:45;;;;;;;3.05;2.70;;;;;;;;;;4441682;28;20028;-69
2021/07/04 13:14:58;;;;;;;3.53;2.77;;;;;;;;;;4437116;28;20040;-71
2021/07/04 13:17:43;;;;;;;4.25;2.70;;;;;;;;;;4435998;28;20150;-70